Hovedside
METAR-TAF:

METAR-TAF

Lufthavner :

Eilat, Israel

breddegrad: 29-43-25N, lengdegrad: 35-00-41E, høyde over havet: 88 m

Gjeldene værobservasjon

Denne rapporten ble laget for 2 timer og 41 minutter siden, klokken 18:50 UTC
Vind 10 kt fra Nord
Temperatur 21°C
Luftfuktighet 33%
Trykk 1018 hPa
Sikt 10 km eller mer
ingen skyer under 1500 m og ingen bygeskyer

METAR: LLER 281850Z 36010KT CAVOK 21/04 Q1018

Tid: 23:31 (21:31 UTC)

Varsel

Denne rapporten ble laget for 4 timer og 22 minutter siden, klokken 17:09 UTC
Varsel gyldig fra 28. klokken 18 UTC til 29. klokken 18 UTC
Vind 12 kt fra Nord
Sikt 10 km eller mer
ingen skyer under 1500 m og ingen bygeskyer

TAF: LLER 281709Z 2818/2918 36012KT CAVOK TX33/2912Z TN16/2904Z

Værobservasjoner og værvarsel for over 4000 flyplasser (METAR- og TAF-rapporter).

Tilgjengelige stasjoner er representert av de røde og gule prikkene på kartet.

Hold musepekeren over prikken for å se navnet på stasjonen.

Klikk så for å se værobservasjoner og -varsler.

For å forandre kartet kan du klikke på den grønne knappen med svart kryss for å zoome inn, på den grønne knappen med strek for å zoome ut, eller på de grønne pilene for å se tilstøtende kart.


METAR-TAF: